createdAt,value
2023-04-19T00:01:09.863Z,100220.30
2023-04-19T00:03:36.626Z,100214.50
2023-04-19T00:06:03.527Z,100214.30
2023-04-19T00:08:30.017Z,100213.97
2023-04-19T00:10:56.479Z,100209.94
2023-04-19T00:13:22.959Z,100205.55
2023-04-19T00:15:49.476Z,100206.92
2023-04-19T00:18:15.965Z,100203.75
2023-04-19T00:20:42.494Z,100199.19
2023-04-19T00:23:08.939Z,100199.54
2023-04-19T00:25:35.421Z,100197.96
2023-04-19T00:28:01.873Z,100196.94
2023-04-19T00:30:28.407Z,100195.18
2023-04-19T00:32:54.968Z,100191.52
2023-04-19T00:35:21.500Z,100191.02
2023-04-19T00:37:48.011Z,100188.93
2023-04-19T00:40:14.700Z,100190.73
2023-04-19T00:42:41.226Z,100186.38
2023-04-19T00:45:08.344Z,100184.13
2023-04-19T00:47:35.931Z,100183.98
2023-04-19T00:50:04.222Z,100179.64
2023-04-19T00:52:32.576Z,100178.06
2023-04-19T00:54:59.089Z,100173.52
2023-04-19T00:57:25.636Z,100171.42
2023-04-19T00:59:52.168Z,100170.95
2023-04-19T01:02:18.688Z,100170.83
2023-04-19T01:04:45.182Z,100166.84
2023-04-19T01:07:11.716Z,100167.95
2023-04-19T01:09:43.940Z,100162.23
2023-04-19T01:12:10.430Z,100163.52
2023-04-19T01:14:36.909Z,100159.92
2023-04-19T01:17:03.421Z,100161.92
2023-04-19T01:19:29.906Z,100160.77
2023-04-19T01:21:56.382Z,100159.95
2023-04-19T01:24:22.977Z,100154.74
2023-04-19T01:26:49.435Z,100147.96
2023-04-19T01:29:15.912Z,100149.77
2023-04-19T01:31:42.491Z,100142.98
2023-04-19T01:34:09.019Z,100140.92
2023-04-19T01:36:35.517Z,100142.70
2023-04-19T01:39:01.999Z,100139.23
2023-04-19T01:41:28.460Z,100138.92
2023-04-19T01:43:54.955Z,100138.60
2023-04-19T01:46:21.452Z,100134.77
2023-04-19T01:48:47.920Z,100134.98
2023-04-19T01:51:14.393Z,100134.99
2023-04-19T01:53:40.925Z,100131.30
2023-04-19T01:56:07.698Z,100130.43
2023-04-19T01:58:34.247Z,100127.97
2023-04-19T02:01:00.759Z,100130.23
2023-04-19T02:03:27.386Z,100126.20
2023-04-19T02:05:54.021Z,100127.23
2023-04-19T02:08:20.538Z,100125.13
2023-04-19T02:10:47.036Z,100123.36
2023-04-19T02:13:13.523Z,100126.34
2023-04-19T02:15:39.983Z,100124.77
2023-04-19T02:18:06.554Z,100122.14
2023-04-19T02:20:33.504Z,100119.88
2023-04-19T02:22:59.953Z,100119.86
2023-04-19T02:25:26.394Z,100118.45
2023-04-19T02:27:52.848Z,100114.73
2023-04-19T02:30:19.398Z,100115.63
2023-04-19T02:32:48.372Z,100110.70
2023-04-19T02:35:14.870Z,100106.66
2023-04-19T02:37:42.014Z,100104.22
2023-04-19T02:40:08.970Z,100099.51
2023-04-19T02:42:35.500Z,100095.86
2023-04-19T02:45:01.996Z,100095.52
2023-04-19T02:47:28.558Z,100093.96
2023-04-19T02:49:55.022Z,100090.46
2023-04-19T02:52:21.474Z,100088.73
2023-04-19T02:54:48.298Z,100088.92
2023-04-19T02:57:14.784Z,100084.54
2023-04-19T02:59:41.226Z,100081.73
2023-04-19T03:02:07.758Z,100076.81
2023-04-19T03:04:34.456Z,100077.86
2023-04-19T03:07:01.024Z,100076.30
2023-04-19T03:09:27.564Z,100071.76
2023-04-19T03:11:54.004Z,100068.27
2023-04-19T03:14:20.509Z,100068.61
2023-04-19T03:16:46.994Z,100062.65
2023-04-19T03:19:13.458Z,100061.26
2023-04-19T03:21:39.947Z,100056.37
2023-04-19T03:24:06.615Z,100057.45
2023-04-19T03:26:33.088Z,100053.61
2023-04-19T03:28:59.556Z,100054.67
2023-04-19T03:31:26.087Z,100052.09
2023-04-19T03:33:52.612Z,100051.06
2023-04-19T03:36:19.147Z,100051.44
2023-04-19T03:38:45.628Z,100050.44
2023-04-19T03:41:22.918Z,100051.36
2023-04-19T03:43:49.576Z,100049.83
2023-04-19T03:46:16.070Z,100051.27
2023-04-19T03:48:42.577Z,100052.37
2023-04-19T03:51:09.177Z,100051.70
2023-04-19T03:53:36.722Z,100051.01
2023-04-19T03:56:03.389Z,100047.70
2023-04-19T03:58:29.870Z,100053.70
2023-04-19T04:00:56.359Z,100054.10
2023-04-19T04:03:23.090Z,100054.30
2023-04-19T04:05:49.771Z,100055.91
2023-04-19T04:08:16.436Z,100054.17
2023-04-19T04:10:42.915Z,100054.37
2023-04-19T04:13:09.479Z,100054.92
2023-04-19T04:15:35.997Z,100054.23
2023-04-19T04:18:02.598Z,100059.35
2023-04-19T04:20:29.164Z,100055.86
2023-04-19T04:22:55.616Z,100058.31
2023-04-19T04:25:23.223Z,100054.27
2023-04-19T04:27:52.915Z,100053.38
2023-04-19T04:30:19.515Z,100053.38
2023-04-19T04:32:46.259Z,100051.09
2023-04-19T04:35:13.227Z,100046.52
2023-04-19T04:37:39.677Z,100048.42
2023-04-19T04:40:06.848Z,100047.17
2023-04-19T04:42:33.355Z,100048.05
2023-04-19T04:45:00.184Z,100050.98
2023-04-19T04:47:31.191Z,100050.46
2023-04-19T04:49:57.799Z,100047.80
2023-04-19T04:52:24.286Z,100046.21
2023-04-19T04:54:50.768Z,100043.23
2023-04-19T04:57:17.266Z,100041.46
2023-04-19T04:59:43.757Z,100041.43
2023-04-19T05:02:10.219Z,100041.77
2023-04-19T05:04:36.736Z,100042.66
2023-04-19T05:07:03.244Z,100043.52
2023-04-19T05:09:29.763Z,100045.95
2023-04-19T05:11:56.318Z,100043.83
2023-04-19T05:14:22.834Z,100043.12
2023-04-19T05:16:49.383Z,100043.48
2023-04-19T05:19:15.961Z,100042.57
2023-04-19T05:21:42.435Z,100038.16
2023-04-19T05:24:08.977Z,100040.78
2023-04-19T05:26:35.648Z,100039.88
2023-04-19T05:29:02.167Z,100038.97
2023-04-19T05:31:28.666Z,100039.45
2023-04-19T05:33:55.213Z,100036.09
2023-04-19T05:36:21.760Z,100039.20
2023-04-19T05:38:48.227Z,100035.80
2023-04-19T05:41:15.800Z,100033.11
2023-04-19T05:43:42.267Z,100034.26
2023-04-19T05:46:08.775Z,100041.55
2023-04-19T05:48:35.255Z,100034.27
2023-04-19T05:51:01.751Z,100035.59
2023-04-19T05:53:28.205Z,100032.07
2023-04-19T05:55:54.714Z,100032.08
2023-04-19T05:58:21.216Z,100031.59
2023-04-19T06:00:47.792Z,100030.75
2023-04-19T06:03:14.490Z,100026.38
2023-04-19T06:05:41.349Z,100026.58
2023-04-19T06:08:07.942Z,100026.21
2023-04-19T06:10:51.384Z,100026.56
2023-04-19T06:13:20.901Z,100025.68
2023-04-19T06:15:48.122Z,100027.96
2023-04-19T06:18:19.006Z,100029.02
2023-04-19T06:20:46.454Z,100027.78
2023-04-19T06:23:12.929Z,100024.98
2023-04-19T06:25:39.387Z,100020.77
2023-04-19T06:28:05.919Z,100017.75
2023-04-19T06:30:32.412Z,100016.83
2023-04-19T06:32:58.921Z,100017.70
2023-04-19T06:35:25.581Z,100019.15
2023-04-19T06:37:52.174Z,100015.48
2023-04-19T06:40:18.955Z,100013.53
2023-04-19T06:42:45.421Z,100014.54
2023-04-19T06:45:11.989Z,100010.80
2023-04-19T06:47:38.668Z,100012.02
2023-04-19T06:50:05.789Z,100013.74
2023-04-19T06:52:32.281Z,100015.47
2023-04-19T06:54:58.773Z,100013.10
2023-04-19T06:57:25.234Z,100012.68
2023-04-19T06:59:51.963Z,100009.09
2023-04-19T07:02:18.553Z,100006.02
2023-04-19T07:04:45.352Z,100004.57
2023-04-19T07:07:12.067Z,100007.99
2023-04-19T07:09:38.539Z,100007.05
2023-04-19T07:12:06.274Z,100006.53
2023-04-19T07:14:32.747Z,99999.33
2023-04-19T07:16:59.342Z,99998.85
2023-04-19T07:19:25.905Z,99998.39
2023-04-19T07:21:52.349Z,99995.79
2023-04-19T07:24:18.852Z,99992.57
2023-04-19T07:26:45.389Z,99990.33
2023-04-19T07:29:14.053Z,99988.88
2023-04-19T07:31:40.562Z,99989.27
2023-04-19T07:34:07.131Z,99985.36
2023-04-19T07:36:33.616Z,99987.00
2023-04-19T07:39:00.083Z,99984.02
2023-04-19T07:41:26.574Z,99979.33
2023-04-19T07:43:53.078Z,99978.67
2023-04-19T07:46:19.648Z,99981.40
2023-04-19T07:48:46.171Z,99974.73
2023-04-19T07:51:16.325Z,99975.97
2023-04-19T07:53:46.216Z,99973.10
2023-04-19T07:56:13.142Z,99973.44
2023-04-19T07:58:40.140Z,99971.89
2023-04-19T08:01:06.921Z,99968.79
2023-04-19T08:03:34.958Z,99968.23
2023-04-19T08:06:02.720Z,99969.95
2023-04-19T08:08:29.180Z,99963.71
2023-04-19T08:10:55.625Z,99964.59
2023-04-19T08:13:22.183Z,99965.48
2023-04-19T08:18:18.425Z,99962.95
2023-04-19T08:20:46.638Z,99962.08
2023-04-19T08:23:21.537Z,99963.73
2023-04-19T08:25:52.549Z,99961.88
2023-04-19T08:28:19.153Z,99960.61
2023-04-19T08:30:45.747Z,99957.47
2023-04-19T08:33:12.409Z,99958.47
2023-04-19T08:35:39.297Z,99954.77
2023-04-19T08:38:05.779Z,99949.66
2023-04-19T08:40:32.852Z,99946.98
2023-04-19T08:42:59.728Z,99946.39
2023-04-19T08:45:28.765Z,99941.80
2023-04-19T08:48:01.540Z,99941.69
2023-04-19T08:55:28.543Z,99933.88
2023-04-19T08:57:56.905Z,99931.77
2023-04-19T09:00:23.520Z,99929.02
2023-04-19T09:02:51.871Z,99924.27
2023-04-19T09:05:19.530Z,99922.45
2023-04-19T09:07:47.026Z,99921.98
2023-04-19T09:10:17.266Z,99922.28
2023-04-19T09:12:45.140Z,99922.58
2023-04-19T09:15:11.623Z,99920.56
2023-04-19T09:17:40.177Z,99922.29
2023-04-19T09:20:07.124Z,99919.48
2023-04-19T09:22:33.800Z,99914.80
2023-04-19T09:27:35.144Z,99915.40
2023-04-19T09:30:04.286Z,99917.73
2023-04-19T09:32:46.616Z,99918.54
2023-04-19T09:35:13.127Z,99914.02
2023-04-19T09:40:26.894Z,99914.95
2023-04-19T09:48:04.459Z,99914.77
2023-04-19T09:50:32.075Z,99915.36
2023-04-19T09:53:00.079Z,99915.92
2023-04-19T09:55:29.262Z,99921.23
2023-04-19T09:57:56.929Z,99918.56
2023-04-19T10:00:23.632Z,99916.84
2023-04-19T10:02:56.385Z,99917.15
2023-04-19T10:05:24.753Z,99918.13
2023-04-19T10:07:53.283Z,99917.98
2023-04-19T10:10:27.649Z,99915.77
2023-04-19T10:15:50.122Z,99905.15
2023-04-19T10:18:18.233Z,99904.04
2023-04-19T10:20:55.269Z,99904.35
2023-04-19T10:23:22.883Z,99900.04
2023-04-19T10:25:49.454Z,99894.33
2023-04-19T10:28:16.536Z,99887.44
2023-04-19T10:30:54.404Z,99881.43
2023-04-19T10:33:28.346Z,99875.30
2023-04-19T10:35:59.215Z,99877.41
2023-04-19T10:38:49.786Z,99871.69
2023-04-19T10:41:18.520Z,99874.39
2023-04-19T10:44:09.810Z,99873.95
2023-04-19T10:46:38.558Z,99873.62
2023-04-19T10:49:06.174Z,99875.60
2023-04-19T10:51:33.757Z,99876.38
2023-04-19T10:54:01.955Z,99875.57
2023-04-19T10:56:34.790Z,99878.02
2023-04-19T10:59:01.262Z,99879.70
2023-04-19T11:01:41.082Z,99879.49
2023-04-19T11:04:09.540Z,99880.14
2023-04-19T11:06:38.279Z,99881.83
2023-04-19T11:09:04.805Z,99876.67
2023-04-19T11:11:35.063Z,99875.31
2023-04-19T11:14:03.422Z,99877.73
2023-04-19T11:16:44.510Z,99876.05
2023-04-19T11:19:19.087Z,99873.30
2023-04-19T11:21:46.810Z,99878.51
2023-04-19T11:24:13.876Z,99875.77
2023-04-19T11:26:42.972Z,99876.35
2023-04-19T11:29:10.149Z,99878.10
2023-04-19T11:31:36.706Z,99876.55
2023-04-19T11:34:04.178Z,99874.77
2023-04-19T11:36:33.501Z,99871.04
2023-04-19T11:38:59.954Z,99868.42
2023-04-19T11:41:26.457Z,99872.77
2023-04-19T11:43:53.179Z,99873.65
2023-04-19T11:46:19.697Z,99873.33
2023-04-19T11:48:53.472Z,99870.19
2023-04-19T11:51:20.885Z,99866.13
2023-04-19T11:53:47.442Z,99871.27
2023-04-19T11:56:13.934Z,99868.81
2023-04-19T11:58:45.279Z,99869.30
2023-04-19T12:01:12.553Z,99866.36
2023-04-19T12:03:45.715Z,99868.73
2023-04-19T12:06:17.921Z,99865.76
2023-04-19T12:08:47.249Z,99863.52
2023-04-19T12:11:15.170Z,99866.16
2023-04-19T12:13:42.256Z,99862.93
2023-04-19T12:16:08.880Z,99858.83
2023-04-19T12:18:51.412Z,99855.61
2023-04-19T12:21:25.390Z,99857.66
2023-04-19T12:23:55.036Z,99860.33
2023-04-19T12:26:21.528Z,99856.83
2023-04-19T12:28:47.995Z,99851.63
2023-04-19T12:31:14.529Z,99848.52
2023-04-19T12:33:41.027Z,99851.05
2023-04-19T12:36:07.838Z,99851.39
2023-04-19T12:38:34.310Z,99851.25
2023-04-19T12:41:01.198Z,99849.66
2023-04-19T12:43:27.737Z,99856.16
2023-04-19T12:45:54.317Z,99856.26
2023-04-19T12:48:20.857Z,99855.67
2023-04-19T12:50:47.356Z,99850.92
2023-04-19T12:53:13.826Z,99849.77
2023-04-19T12:55:40.277Z,99850.42
2023-04-19T12:58:06.848Z,99850.95
2023-04-19T13:00:33.329Z,99849.55
2023-04-19T13:03:00.023Z,99846.49
2023-04-19T13:05:26.831Z,99847.21
2023-04-19T13:07:53.351Z,99845.67
2023-04-19T13:10:19.899Z,99846.92
2023-04-19T13:12:46.438Z,99848.54
2023-04-19T13:15:12.939Z,99846.23
2023-04-19T13:17:39.390Z,99844.13
2023-04-19T13:20:06.778Z,99846.05
2023-04-19T13:22:33.379Z,99845.79
2023-04-19T13:24:59.866Z,99849.05
2023-04-19T13:27:26.343Z,99844.96
2023-04-19T13:29:55.213Z,99844.46
2023-04-19T13:32:21.951Z,99841.48
2023-04-19T13:34:48.633Z,99840.36
2023-04-19T13:37:15.185Z,99839.22
2023-04-19T13:39:42.960Z,99837.95
2023-04-19T13:42:09.458Z,99836.72
2023-04-19T13:44:35.954Z,99836.81
2023-04-19T13:47:02.565Z,99834.87
2023-04-19T13:49:29.122Z,99836.51
2023-04-19T13:51:55.942Z,99836.60
2023-04-19T13:54:22.464Z,99836.25
2023-04-19T13:56:51.965Z,99831.02
2023-04-19T13:59:18.922Z,99831.45
2023-04-19T14:01:45.357Z,99826.59
2023-04-19T14:04:12.011Z,99827.16
2023-04-19T14:06:38.710Z,99823.79
2023-04-19T14:09:05.207Z,99823.23
2023-04-19T14:11:31.732Z,99820.98
2023-04-19T14:13:58.220Z,99823.23
2023-04-19T14:16:24.952Z,99821.10
2023-04-19T14:18:51.538Z,99820.74
2023-04-19T14:21:18.519Z,99821.59
2023-04-19T14:23:45.037Z,99824.03
2023-04-19T14:26:11.536Z,99825.23
2023-04-19T14:28:37.995Z,99828.77
2023-04-19T14:31:04.603Z,99831.66
2023-04-19T14:33:31.172Z,99833.93
2023-04-19T14:35:57.663Z,99836.69
2023-04-19T14:38:24.149Z,99835.34
2023-04-19T14:40:50.588Z,99835.98
2023-04-19T14:43:17.167Z,99840.19
2023-04-19T14:45:43.676Z,99840.63
2023-04-19T14:48:10.304Z,99843.48
2023-04-19T14:50:36.844Z,99842.84
2023-04-19T14:53:03.390Z,99844.59
2023-04-19T14:55:29.894Z,99846.80
2023-04-19T14:57:56.385Z,99847.00
2023-04-19T15:00:22.982Z,99850.46
2023-04-19T15:02:49.516Z,99849.20
2023-04-19T15:05:16.420Z,99852.21
2023-04-19T15:07:43.113Z,99853.52
2023-04-19T15:10:10.021Z,99856.79
2023-04-19T15:12:36.556Z,99857.79
2023-04-19T15:15:03.202Z,99859.52
2023-04-19T15:17:29.705Z,99858.59
2023-04-19T15:19:56.210Z,99860.09
2023-04-19T15:22:22.731Z,99864.58
2023-04-19T15:24:49.195Z,99863.84
2023-04-19T15:27:15.735Z,99864.82
2023-04-19T15:29:42.239Z,99867.77
2023-04-19T15:32:08.825Z,99864.20
2023-04-19T15:34:35.326Z,99866.13
2023-04-19T15:37:01.828Z,99868.81
2023-04-19T15:39:28.305Z,99872.21
2023-04-19T15:41:54.809Z,99875.64
2023-04-19T15:44:21.261Z,99875.58
2023-04-19T15:46:47.764Z,99877.63
2023-04-19T15:49:14.425Z,99883.05
2023-04-19T15:51:41.156Z,99889.15
2023-04-19T15:54:07.704Z,99894.77
2023-04-19T15:56:34.178Z,99895.64
2023-04-19T15:59:00.845Z,99898.73
2023-04-19T16:01:27.434Z,99900.41
2023-04-19T16:03:54.316Z,99901.46
2023-04-19T16:06:22.135Z,99898.94
2023-04-19T16:08:49.880Z,99901.52
2023-04-19T16:11:16.417Z,99904.61
2023-04-19T16:13:42.952Z,99903.48
2023-04-19T16:16:09.429Z,99906.09
2023-04-19T16:18:35.943Z,99905.88
2023-04-19T16:21:03.469Z,99907.13
2023-04-19T16:23:30.023Z,99909.55
2023-04-19T16:25:56.904Z,99913.69
2023-04-19T16:28:23.584Z,99914.62
2023-04-19T16:30:50.057Z,99913.73
2023-04-19T16:33:16.644Z,99917.21
2023-04-19T16:35:43.175Z,99918.52
2023-04-19T16:38:09.680Z,99916.80
2023-04-19T16:40:36.198Z,99917.27
2023-04-19T16:43:02.727Z,99919.48
2023-04-19T16:45:29.276Z,99917.30
2023-04-19T16:47:55.907Z,99911.97
2023-04-19T16:50:22.458Z,99918.25
2023-04-19T16:52:48.918Z,99917.45
2023-04-19T16:55:15.512Z,99918.63
2023-04-19T16:57:42.065Z,99918.66
2023-04-19T17:00:09.294Z,99917.66
2023-04-19T17:02:35.962Z,99923.02
2023-04-19T17:05:02.588Z,99924.84
2023-04-19T17:07:29.292Z,99926.52
2023-04-19T17:09:55.928Z,99930.52
2023-04-19T17:12:22.513Z,99931.54
2023-04-19T17:14:49.039Z,99933.59
2023-04-19T17:17:15.874Z,99939.52
2023-04-19T17:19:42.299Z,99941.77
2023-04-19T17:22:08.773Z,99942.73
2023-04-19T17:24:35.264Z,99943.69
2023-04-19T17:27:01.767Z,99944.29
2023-04-19T17:29:28.390Z,99944.39
2023-04-19T17:31:54.900Z,99945.59
2023-04-19T17:34:21.439Z,99951.78
2023-04-19T17:36:47.952Z,99955.48
2023-04-19T17:39:14.622Z,99962.52
2023-04-19T17:41:41.432Z,99965.83
2023-04-19T17:44:07.963Z,99971.59
2023-04-19T17:46:34.524Z,99972.94
2023-04-19T17:49:01.025Z,99979.06
2023-04-19T17:51:27.572Z,99978.33
2023-04-19T17:53:54.119Z,99983.64
2023-04-19T17:56:20.626Z,99986.63
2023-04-19T17:58:47.073Z,99990.51
2023-04-19T18:01:53.149Z,99992.09
2023-04-19T18:04:20.120Z,99999.85
2023-04-19T18:06:46.799Z,100005.39
2023-04-19T18:09:13.422Z,100006.70
2023-04-19T18:11:40.498Z,100003.96
2023-04-19T18:14:06.982Z,100012.48
2023-04-19T18:16:33.583Z,100013.80
2023-04-19T18:19:00.100Z,100012.67
2023-04-19T18:21:26.708Z,100012.39
2023-04-19T18:23:53.347Z,100014.44
2023-04-19T18:26:20.583Z,100018.77
2023-04-19T18:28:47.490Z,100021.67
2023-04-19T18:31:13.984Z,100024.59
2023-04-19T18:33:40.491Z,100029.60
2023-04-19T18:36:07.059Z,100033.00
2023-04-19T18:38:33.556Z,100037.51
2023-04-19T18:41:00.011Z,100039.52
2023-04-19T18:43:27.992Z,100042.78
2023-04-19T18:45:55.584Z,100043.02
2023-04-19T18:48:23.879Z,100042.21
2023-04-19T18:50:50.660Z,100044.02
2023-04-19T18:53:17.128Z,100044.05
2023-04-19T18:55:43.641Z,100042.90
2023-04-19T18:58:10.128Z,100042.83
2023-04-19T19:00:36.619Z,100048.23
2023-04-19T19:03:04.022Z,100047.12
2023-04-19T19:05:30.814Z,100052.66
2023-04-19T19:07:57.849Z,100051.35
2023-04-19T19:12:53.082Z,100054.68
2023-04-19T19:15:19.602Z,100053.55
2023-04-19T19:17:49.779Z,100059.23
2023-04-19T19:20:20.014Z,100057.55
2023-04-19T19:22:46.565Z,100063.04
2023-04-19T19:25:13.137Z,100063.44
2023-04-19T19:27:40.086Z,100063.13
2023-04-19T19:30:07.417Z,100062.10
2023-04-19T19:32:34.064Z,100063.88
2023-04-19T19:35:02.978Z,100069.16
2023-04-19T19:37:31.254Z,100070.75
2023-04-19T19:40:02.809Z,100070.23
2023-04-19T19:42:31.096Z,100077.14
2023-04-19T19:44:57.547Z,100078.23
2023-04-19T19:47:25.128Z,100075.14
2023-04-19T19:50:34.998Z,100081.14
2023-04-19T19:52:38.433Z,100080.84
2023-04-19T19:55:05.714Z,100082.81
2023-04-19T19:58:16.338Z,100081.80
2023-04-19T20:00:37.563Z,100080.83
2023-04-19T20:03:06.688Z,100082.45
2023-04-19T20:05:33.765Z,100083.92
2023-04-19T20:08:10.143Z,100081.86
2023-04-19T20:10:38.253Z,100080.15
2023-04-19T20:13:05.103Z,100082.99
2023-04-19T20:15:32.128Z,100087.23
2023-04-19T20:17:58.752Z,100087.95
2023-04-19T20:20:25.265Z,100086.73
2023-04-19T20:22:51.778Z,100088.30
2023-04-19T20:25:18.263Z,100091.98
2023-04-19T20:27:44.799Z,100090.27
2023-04-19T20:30:11.780Z,100094.88
2023-04-19T20:32:38.498Z,100096.33
2023-04-19T20:35:05.446Z,100095.15
2023-04-19T20:37:31.943Z,100097.45
2023-04-19T20:39:58.407Z,100099.97
2023-04-19T20:42:24.976Z,100102.98
2023-04-19T20:44:51.470Z,100107.56
2023-04-19T20:47:17.900Z,100109.15
2023-04-19T20:49:44.359Z,100108.81
2023-04-19T20:52:10.817Z,100110.05
2023-04-19T20:54:37.365Z,100111.29
2023-04-19T20:57:03.851Z,100107.10
2023-04-19T20:59:31.022Z,100112.73
2023-04-19T21:01:58.422Z,100106.41
2023-04-19T21:04:25.103Z,100107.48
2023-04-19T21:06:51.745Z,100110.46
2023-04-19T21:09:18.491Z,100110.11
2023-04-19T21:11:45.190Z,100113.60
2023-04-19T21:14:11.706Z,100117.98
2023-04-19T21:16:38.214Z,100116.95
2023-04-19T21:19:04.721Z,100114.84
2023-04-19T21:21:32.496Z,100116.23
2023-04-19T21:23:59.180Z,100116.42
2023-04-19T21:26:25.683Z,100118.52
2023-04-19T21:28:52.142Z,100117.15
2023-04-19T21:31:18.676Z,100118.55
2023-04-19T21:33:45.141Z,100115.77
2023-04-19T21:36:11.814Z,100118.41
2023-04-19T21:38:38.395Z,100115.44
2023-04-19T21:41:06.635Z,100114.58
2023-04-19T21:43:33.161Z,100115.63
2023-04-19T21:45:59.841Z,100117.04
2023-04-19T21:48:26.304Z,100117.92
2023-04-19T21:50:53.003Z,100116.17
2023-04-19T21:53:19.450Z,100113.38
2023-04-19T21:55:48.852Z,100114.61
2023-04-19T21:58:15.345Z,100116.38
2023-04-19T22:00:41.898Z,100113.25
2023-04-19T22:03:08.909Z,100113.64
2023-04-19T22:05:35.563Z,100118.71
2023-04-19T22:08:02.704Z,100118.90
2023-04-19T22:10:29.958Z,100121.70
2023-04-19T22:12:58.878Z,100130.61
2023-04-19T22:15:26.527Z,100136.04
2023-04-19T22:17:53.054Z,100141.46
2023-04-19T22:20:19.644Z,100134.81
2023-04-19T22:22:46.104Z,100140.59
2023-04-19T22:25:12.644Z,100143.58
2023-04-19T22:27:39.120Z,100147.08
2023-04-19T22:30:06.329Z,100145.87
2023-04-19T22:32:32.926Z,100150.09
2023-04-19T22:34:59.454Z,100145.37
2023-04-19T22:37:25.910Z,100147.64
2023-04-19T22:39:52.395Z,100147.48
2023-04-19T22:42:18.854Z,100150.81
2023-04-19T22:44:45.316Z,100148.73
2023-04-19T22:47:11.809Z,100149.27
2023-04-19T22:49:38.348Z,100144.89
2023-04-19T22:52:04.834Z,100146.64
2023-04-19T22:54:31.318Z,100147.34
2023-04-19T22:56:57.781Z,100146.11
2023-04-19T22:59:24.272Z,100140.68
2023-04-19T23:01:50.950Z,100148.39
2023-04-19T23:04:17.562Z,100144.36
2023-04-19T23:06:44.245Z,100147.88
2023-04-19T23:09:10.972Z,100142.44
2023-04-19T23:11:37.423Z,100146.11
2023-04-19T23:14:04.012Z,100146.13
2023-04-19T23:16:30.463Z,100145.95
2023-04-19T23:18:56.928Z,100151.20
2023-04-19T23:21:23.392Z,100148.57
2023-04-19T23:23:50.263Z,100153.12
2023-04-19T23:26:16.745Z,100148.91
2023-04-19T23:28:43.260Z,100153.82
2023-04-19T23:31:09.786Z,100152.42
2023-04-19T23:33:36.260Z,100152.60
2023-04-19T23:36:02.927Z,100152.95
2023-04-19T23:38:29.418Z,100152.23
2023-04-19T23:40:55.882Z,100148.05
2023-04-19T23:43:22.339Z,100146.10
2023-04-19T23:45:48.836Z,100153.63
2023-04-19T23:48:15.311Z,100149.42
2023-04-19T23:50:41.765Z,100150.83
2023-04-19T23:53:08.227Z,100152.75
2023-04-19T23:55:34.683Z,100147.50
2023-04-19T23:58:01.166Z,100152.21
